createdAt,value
2018-07-25T16:14:38.461Z,100072.00
2018-07-25T16:24:40.801Z,100062.28
2018-07-25T16:34:43.296Z,100062.27
2018-07-25T16:44:47.040Z,100082.47
2018-07-25T16:54:49.401Z,100083.47
2018-07-25T17:04:51.917Z,100083.31
2018-07-25T17:14:54.258Z,100082.13
2018-07-25T17:24:56.778Z,100083.45
2018-07-25T17:34:59.294Z,100093.57
2018-07-25T17:45:01.641Z,100113.05
2018-07-25T17:55:04.117Z,100104.27
2018-07-25T18:05:06.714Z,100115.55
2018-07-25T18:15:09.472Z,100144.26
2018-07-25T18:25:11.909Z,100153.34
2018-07-25T18:35:14.255Z,100130.13
2018-07-25T18:45:16.756Z,100128.46
2018-07-25T18:55:19.104Z,100136.52
2018-07-25T19:05:27.050Z,100144.42
2018-07-25T19:15:32.004Z,100159.86
2018-07-25T19:25:34.444Z,100168.77
2018-07-25T19:35:36.829Z,100174.48
2018-07-25T19:45:39.280Z,100179.48
2018-07-25T19:55:42.320Z,100174.09
2018-07-25T20:05:44.730Z,100178.11
2018-07-25T20:15:52.684Z,100173.04
2018-07-25T20:25:55.101Z,100177.41
2018-07-25T20:35:57.509Z,100180.66
2018-07-25T20:45:59.965Z,100183.02
2018-07-25T20:56:02.494Z,100180.17
2018-07-25T21:06:04.825Z,100192.92
2018-07-25T21:16:07.483Z,100198.67
2018-07-25T21:26:10.245Z,100211.62
2018-07-25T21:36:12.605Z,100216.83
2018-07-25T21:46:15.006Z,100226.27
2018-07-25T21:56:17.488Z,100238.67
2018-07-25T22:06:19.805Z,100242.77
2018-07-25T22:16:22.682Z,100254.05
2018-07-25T22:26:25.042Z,100244.16
2018-07-25T22:36:27.912Z,100246.42
2018-07-25T22:46:30.299Z,100254.83
2018-07-25T22:56:32.907Z,100252.55
2018-07-25T23:06:35.344Z,100252.55
2018-07-25T23:16:37.947Z,100247.17
2018-07-25T23:26:40.384Z,100244.81
2018-07-25T23:36:42.745Z,100245.34
2018-07-25T23:46:45.239Z,100237.93
2018-07-25T23:56:47.805Z,100239.11
